Time;durP1;ratioP1;P1;durP2;ratioP2;P2;SDS_P1;SDS_P2;PMS_P1;PMS_P2;Temp;Humidity;BMP_temperature;BMP_pressure;BME280_temperature;BME280_humidity;BME280_pressure;Samples;Min_cycle;Max_cycle;Signal;HPM_P1;HPM_P2
2021/11/01 00:00:38;;;;;;;3.42;2.00;;;11.40;99.90;;;;;;4444409;32;20124;-69
2021/11/01 00:03:04;;;;;;;2.10;1.27;;;11.40;99.90;;;;;;4444731;32;20081;-68
2021/11/01 00:05:30;;;;;;;5.25;1.20;;;11.40;99.90;;;;;;4444541;32;20072;-68
2021/11/01 00:07:56;;;;;;;3.45;1.10;;;11.40;99.90;;;;;;4443951;32;20120;-69
2021/11/01 00:10:22;;;;;;;1.83;1.02;;;11.40;99.90;;;;;;4444415;32;20081;-69
2021/11/01 00:12:48;;;;;;;1.00;0.95;;;11.30;99.90;;;;;;4445375;32;20514;-71
2021/11/01 00:15:14;;;;;;;6.03;2.67;;;11.30;99.90;;;;;;4444380;32;20380;-69
2021/11/01 00:17:40;;;;;;;2.10;1.17;;;11.30;99.90;;;;;;4444493;32;20061;-69
2021/11/01 00:20:07;;;;;;;0.57;0.57;;;11.20;99.90;;;;;;4444201;32;20084;-69
2021/11/01 00:22:35;;;;;;;0.75;0.75;;;11.20;99.90;;;;;;4444196;32;20118;-69
2021/11/01 00:25:01;;;;;;;1.42;1.12;;;11.20;99.90;;;;;;4443811;32;20550;-69
2021/11/01 00:27:26;;;;;;;14.15;3.22;;;11.20;99.90;;;;;;4443891;32;20065;-68
2021/11/01 00:29:52;;;;;;;1.87;1.55;;;11.10;99.90;;;;;;4444500;32;20436;-69
2021/11/01 00:32:18;;;;;;;1.80;1.08;;;11.00;99.90;;;;;;4443958;32;20069;-69
2021/11/01 00:34:43;;;;;;;1.70;1.27;;;11.00;99.90;;;;;;4444539;32;20127;-69
2021/11/01 00:37:09;;;;;;;1.12;0.95;;;11.00;99.90;;;;;;4443731;32;20065;-69
2021/11/01 00:39:35;;;;;;;1.17;0.80;;;11.00;99.90;;;;;;4444061;32;20085;-69
2021/11/01 00:42:02;;;;;;;0.90;0.90;;;11.00;99.90;;;;;;4444258;32;20077;-69
2021/11/01 00:44:28;;;;;;;4.03;2.33;;;11.00;99.90;;;;;;4444658;32;20112;-69
2021/11/01 00:46:53;;;;;;;2.05;0.93;;;11.00;99.90;;;;;;4445125;32;20515;-68
2021/11/01 00:49:19;;;;;;;1.83;0.93;;;10.90;99.90;;;;;;4444731;32;20518;-69
2021/11/01 00:51:46;;;;;;;0.80;0.80;;;11.00;99.90;;;;;;4444838;32;20065;-69
2021/11/01 00:54:12;;;;;;;1.17;0.90;;;10.90;99.90;;;;;;4443648;32;20069;-69
2021/11/01 00:56:38;;;;;;;0.57;0.57;;;10.80;99.90;;;;;;4443913;32;20169;-69
2021/11/01 00:59:04;;;;;;;3.37;1.48;;;10.90;99.90;;;;;;4444285;32;20124;-69
2021/11/01 01:01:32;;;;;;;6.87;1.83;;;10.80;99.90;;;;;;4443810;32;20065;-69
2021/11/01 01:03:59;;;;;;;3.20;1.02;;;10.80;99.90;;;;;;4443882;32;20549;-70
2021/11/01 01:06:26;;;;;;;1.67;1.37;;;10.70;99.90;;;;;;4443587;32;20069;-69
2021/11/01 01:08:51;;;;;;;0.85;0.85;;;10.60;99.90;;;;;;4443616;32;20077;-69
2021/11/01 01:11:18;;;;;;;4.78;1.67;;;10.60;99.90;;;;;;4443826;32;20057;-69
2021/11/01 01:13:43;;;;;;;0.82;0.80;;;10.60;99.90;;;;;;4444807;32;20451;-69
2021/11/01 01:16:12;;;;;;;3.03;1.00;;;10.60;99.90;;;;;;4434053;32;20073;-70
2021/11/01 01:18:39;;;;;;;1.85;1.55;;;10.60;99.90;;;;;;4428277;32;20122;-69
2021/11/01 01:22:19;;;;;;;9.38;3.03;;;10.50;99.90;;;;;;4428257;32;20064;-69
2021/11/01 01:23:51;;;;;;;1.85;1.17;;;10.50;99.90;;;;;;4419720;32;20081;-68
2021/11/01 01:26:17;;;;;;;3.58;0.80;;;10.50;99.90;;;;;;4443572;32;20076;-69
2021/11/01 01:28:43;;;;;;;4.18;2.50;;;10.40;99.90;;;;;;4443232;32;20073;-69
2021/11/01 01:31:10;;;;;;;0.90;0.88;;;10.50;99.90;;;;;;4443665;32;20088;-70
2021/11/01 01:33:36;;;;;;;8.50;1.65;;;10.50;99.90;;;;;;4443441;32;20077;-69
2021/11/01 01:36:02;;;;;;;1.98;1.37;;;10.40;99.90;;;;;;4443591;32;20061;-69
2021/11/01 01:38:28;;;;;;;2.45;1.33;;;10.40;99.90;;;;;;4444071;32;20115;-68
2021/11/01 01:40:54;;;;;;;1.60;1.20;;;10.30;99.90;;;;;;4444714;32;20068;-69
2021/11/01 01:43:21;;;;;;;0.73;0.73;;;10.40;99.90;;;;;;4443576;32;20081;-69
2021/11/01 01:45:46;;;;;;;1.70;1.20;;;10.40;99.90;;;;;;4443726;32;20068;-70
2021/11/01 01:48:13;;;;;;;2.60;1.37;;;10.40;99.90;;;;;;4443438;32;20068;-69
2021/11/01 01:50:39;;;;;;;3.53;1.90;;;10.40;99.90;;;;;;4443387;32;20085;-69
2021/11/01 01:53:05;;;;;;;1.23;1.05;;;10.40;99.90;;;;;;4442878;32;20064;-70
2021/11/01 01:55:33;;;;;;;3.97;1.85;;;10.30;99.90;;;;;;4442925;32;20077;-69
2021/11/01 01:57:59;;;;;;;3.55;1.25;;;10.40;99.90;;;;;;4443090;32;20081;-69
2021/11/01 02:01:08;;;;;;;1.12;1.08;;;10.30;99.90;;;;;;4443796;32;20119;-69
2021/11/01 02:03:10;;;;;;;1.70;1.17;;;10.20;99.90;;;;;;4431841;32;20069;-69
2021/11/01 02:05:49;;;;;;;0.85;0.85;;;10.20;99.90;;;;;;4443676;32;20089;-70
2021/11/01 02:08:17;;;;;;;0.62;0.62;;;10.20;99.90;;;;;;4443017;32;20073;-69
2021/11/01 02:10:50;;;;;;;1.33;0.93;;;10.20;99.90;;;;;;4443433;32;20077;-69
2021/11/01 02:13:19;;;;;;;1.20;0.93;;;10.10;99.90;;;;;;4443133;32;20123;-69
2021/11/01 02:15:49;;;;;;;0.60;0.60;;;10.10;99.90;;;;;;4437451;32;20495;-68
2021/11/01 02:18:15;;;;;;;1.20;1.10;;;10.10;99.90;;;;;;4427697;32;20120;-69
2021/11/01 02:20:48;;;;;;;1.48;0.77;;;10.10;99.90;;;;;;4430596;32;20142;-70
2021/11/01 02:23:21;;;;;;;1.40;1.17;;;10.10;99.90;;;;;;4445125;32;20100;-69
2021/11/01 02:25:52;;;;;;;0.90;0.90;;;10.10;99.90;;;;;;4446060;32;20088;-70
2021/11/01 02:28:23;;;;;;;1.90;1.23;;;10.00;99.90;;;;;;4445006;32;20085;-69
2021/11/01 02:30:50;;;;;;;2.15;1.35;;;10.00;99.90;;;;;;4445940;32;20053;-69
2021/11/01 02:33:18;;;;;;;1.48;1.37;;;10.10;99.90;;;;;;4445806;32;20102;-68
2021/11/01 02:35:44;;;;;;;17.83;2.30;;;10.00;99.90;;;;;;4445394;32;20053;-70
2021/11/01 02:38:15;;;;;;;2.53;1.30;;;10.10;99.90;;;;;;4444473;32;20600;-69
2021/11/01 02:40:40;;;;;;;;;;;10.00;99.90;;;;;;4446033;32;20551;-68
2021/11/01 02:43:06;;;;;;;1.15;0.80;;;10.00;99.90;;;;;;4445514;32;19941;-69
2021/11/01 02:45:34;;;;;;;1.98;1.23;;;10.00;99.90;;;;;;4445462;32;20078;-69
2021/11/01 02:48:00;;;;;;;6.00;2.05;;;10.00;99.90;;;;;;4445384;32;20080;-69
2021/11/01 02:50:26;;;;;;;2.70;1.50;;;10.00;99.90;;;;;;4445702;32;20118;-69
2021/11/01 02:52:52;;;;;;;0.93;0.73;;;10.00;99.90;;;;;;4446546;32;20139;-69
2021/11/01 02:55:20;;;;;;;3.85;1.58;;;10.00;99.90;;;;;;4445630;32;20077;-69
2021/11/01 02:57:45;;;;;;;3.15;1.20;;;9.90;99.90;;;;;;4445426;32;20069;-69
2021/11/01 03:00:13;;;;;;;5.00;1.55;;;9.90;99.90;;;;;;4446623;32;20535;-69
2021/11/01 03:02:39;;;;;;;2.10;1.10;;;9.90;99.90;;;;;;4445159;32;20078;-69
2021/11/01 03:05:09;;;;;;;3.28;1.73;;;9.90;99.90;;;;;;4446223;32;20053;-68
2021/11/01 03:07:35;;;;;;;4.15;1.58;;;9.90;99.90;;;;;;4446305;32;20106;-69
2021/11/01 03:10:03;;;;;;;1.87;1.33;;;9.90;99.90;;;;;;4444865;32;20428;-69
2021/11/01 03:12:29;;;;;;;1.27;1.17;;;9.80;99.90;;;;;;4445367;32;20081;-69
2021/11/01 03:14:58;;;;;;;0.88;0.88;;;9.80;99.90;;;;;;4444998;32;20117;-70
2021/11/01 03:17:25;;;;;;;2.28;1.00;;;9.70;99.90;;;;;;4445222;32;20069;-69
2021/11/01 03:19:58;;;;;;;0.77;0.77;;;9.70;99.90;;;;;;4445890;32;20053;-69
2021/11/01 03:22:25;;;;;;;0.82;0.82;;;9.70;99.90;;;;;;4445139;32;20297;-69
2021/11/01 03:24:54;;;;;;;1.92;1.35;;;9.70;99.90;;;;;;4445173;32;20520;-69
2021/11/01 03:27:21;;;;;;;2.45;1.35;;;9.70;99.90;;;;;;4445130;32;20089;-69
2021/11/01 03:29:47;;;;;;;2.37;1.77;;;9.60;99.90;;;;;;4445885;32;20058;-69
2021/11/01 03:32:14;;;;;;;6.60;1.40;;;9.60;99.90;;;;;;4446001;32;20124;-68
2021/11/01 03:34:42;;;;;;;19.08;4.30;;;9.50;99.90;;;;;;4445730;32;20607;-70
2021/11/01 03:37:12;;;;;;;1.90;1.17;;;9.50;99.90;;;;;;4445000;32;20068;-69
2021/11/01 03:39:40;;;;;;;3.83;1.55;;;9.60;99.90;;;;;;4444385;32;20526;-69
2021/11/01 03:42:08;;;;;;;0.95;0.95;;;9.50;99.90;;;;;;4444725;32;20510;-69
2021/11/01 03:44:38;;;;;;;1.20;0.98;;;9.40;99.90;;;;;;4445164;32;20454;-69
2021/11/01 03:47:05;;;;;;;1.48;0.85;;;9.40;99.90;;;;;;4445765;32;20069;-68
2021/11/01 03:49:34;;;;;;;3.70;1.10;;;9.40;99.90;;;;;;4445928;32;20122;-69
2021/11/01 03:52:09;;;;;;;4.20;1.75;;;9.30;99.90;;;;;;4444748;32;20513;-69
2021/11/01 03:54:37;;;;;;;1.55;1.20;;;9.20;99.90;;;;;;4444878;32;20589;-69
2021/11/01 03:57:03;;;;;;;3.30;1.80;;;9.30;99.90;;;;;;4445022;32;20760;-69
2021/11/01 03:59:29;;;;;;;3.78;1.23;;;9.20;99.90;;;;;;4445349;32;20065;-69
2021/11/01 04:01:56;;;;;;;0.70;0.70;;;9.30;99.90;;;;;;4444620;32;20492;-69
2021/11/01 04:04:21;;;;;;;1.95;1.30;;;9.20;99.90;;;;;;4444951;32;20439;-68
2021/11/01 04:06:47;;;;;;;2.40;1.37;;;9.20;99.90;;;;;;4443996;32;20065;-69
2021/11/01 04:09:16;;;;;;;5.47;2.10;;;9.30;99.90;;;;;;4444493;32;20066;-69
2021/11/01 04:11:43;;;;;;;2.45;1.25;;;9.20;99.90;;;;;;4443991;32;20068;-68
2021/11/01 04:14:15;;;;;;;1.12;1.00;;;9.20;99.90;;;;;;4444180;32;20135;-69
2021/11/01 04:16:44;;;;;;;4.32;1.48;;;9.10;99.90;;;;;;4444229;32;20065;-68
2021/11/01 04:21:37;;;;;;;1.73;1.02;;;9.20;99.90;;;;;;4444062;32;20130;-69
2021/11/01 04:24:03;;;;;;;2.67;1.83;;;9.20;99.90;;;;;;4444452;32;20058;-69
2021/11/01 04:26:28;;;;;;;1.95;1.65;;;9.10;99.90;;;;;;4444448;32;20546;-69
2021/11/01 04:28:55;;;;;;;7.85;1.35;;;9.20;99.90;;;;;;4444437;32;20132;-69
2021/11/01 04:31:29;;;;;;;3.05;1.65;;;9.10;99.90;;;;;;4441493;32;85742;-69
2021/11/01 04:33:59;;;;;;;1.40;0.98;;;9.10;99.90;;;;;;4445127;32;20120;-69
2021/11/01 04:36:24;;;;;;;3.45;2.30;;;9.10;99.90;;;;;;4444561;32;20061;-68
2021/11/01 04:39:06;;;;;;;1.52;1.35;;;9.20;99.90;;;;;;4443092;32;20455;-68
2021/11/01 04:41:40;;;;;;;22.20;2.10;;;9.20;99.90;;;;;;4428268;32;20091;-69
2021/11/01 04:52:56;;;;;;;4.03;2.03;;;9.10;99.90;;;;;;4428679;32;20116;-69
2021/11/01 04:53:25;;;;;;;1.85;1.25;;;9.20;99.90;;;;;;4422952;32;20090;-70
2021/11/01 04:55:09;;;;;;;1.30;1.17;;;9.20;99.90;;;;;;4416950;32;20420;-69
2021/11/01 04:57:34;;;;;;;2.40;1.00;;;9.30;99.90;;;;;;4429244;32;20057;-69
2021/11/01 05:00:01;;;;;;;0.95;0.95;;;9.30;99.90;;;;;;4430549;32;20089;-69
2021/11/01 05:02:28;;;;;;;6.43;1.48;;;9.30;99.90;;;;;;4438316;32;20533;-68
2021/11/01 05:04:54;;;;;;;5.80;1.45;;;9.30;99.90;;;;;;4440737;32;20061;-69
2021/11/01 05:07:19;;;;;;;8.73;1.83;;;9.40;99.90;;;;;;4442659;32;20499;-69
2021/11/01 05:09:49;;;;;;;6.12;1.58;;;9.40;99.90;;;;;;4438557;32;20085;-69
2021/11/01 05:17:32;;;;;;;3.43;1.90;;;9.60;99.90;;;;;;4426788;32;20053;-68
2021/11/01 05:28:26;;;;;;;1.48;1.10;;;9.50;99.90;;;;;;4438125;32;20070;-69
2021/11/01 05:30:43;;;;;;;1.92;1.27;;;9.50;99.90;;;;;;4430792;32;20069;-69
2021/11/01 05:35:39;;;;;;;1.85;0.80;;;9.60;99.90;;;;;;4442015;32;20122;-70
2021/11/01 05:38:05;;;;;;;1.95;1.37;;;9.60;99.90;;;;;;4442474;32;20458;-69
2021/11/01 05:40:32;;;;;;;2.78;1.10;;;9.60;99.90;;;;;;4433766;32;20584;-69
2021/11/01 05:42:58;;;;;;;2.20;1.48;;;9.50;99.90;;;;;;4427990;32;20132;-69
2021/11/01 05:45:23;;;;;;;3.10;0.95;;;9.50;99.90;;;;;;4426918;32;20057;-69
2021/11/01 05:47:57;;;;;;;1.75;1.35;;;9.50;99.90;;;;;;4437180;32;20514;-70
2021/11/01 05:50:25;;;;;;;3.95;1.62;;;9.60;99.90;;;;;;4442115;32;20093;-69
2021/11/01 05:52:50;;;;;;;6.50;2.20;;;9.60;99.90;;;;;;4442366;32;20562;-68
2021/11/01 05:55:31;;;;;;;3.35;1.60;;;9.60;99.90;;;;;;4437464;32;20069;-69
2021/11/01 05:58:07;;;;;;;3.80;1.75;;;9.60;99.90;;;;;;4444473;32;20392;-69
2021/11/01 06:03:38;;;;;;;2.50;1.35;;;9.70;99.90;;;;;;4434668;32;20046;-69
2021/11/01 06:08:56;;;;;;;2.25;1.60;;;9.80;99.90;;;;;;4443090;32;20080;-69
2021/11/01 06:13:53;;;;;;;1.10;0.98;;;9.90;99.90;;;;;;4443797;32;20050;-68
2021/11/01 06:16:19;;;;;;;3.60;1.35;;;9.90;99.90;;;;;;4435815;32;20523;-69
2021/11/01 06:18:45;;;;;;;3.20;1.55;;;9.80;99.90;;;;;;4426460;32;20093;-69
2021/11/01 06:21:14;;;;;;;5.22;1.83;;;9.90;99.90;;;;;;4441507;32;20514;-69
2021/11/01 06:23:44;;;;;;;16.92;1.60;;;10.10;99.90;;;;;;4436930;32;20128;-69
2021/11/01 06:26:10;;;;;;;0.93;0.82;;;10.10;99.90;;;;;;4425104;32;20866;-69
2021/11/01 06:28:40;;;;;;;8.75;1.62;;;10.10;99.90;;;;;;4431182;32;20119;-69
2021/11/01 06:31:10;;;;;;;2.50;1.15;;;10.10;99.90;;;;;;4419351;32;20520;-69
2021/11/01 06:50:48;;;;;;;2.33;1.73;;;10.60;99.90;;;;;;4421842;32;20112;-69
2021/11/01 06:52:51;;;;;;;16.65;1.52;;;10.70;99.90;;;;;;4423900;32;20070;-66
2021/11/01 06:56:19;;;;;;;2.92;1.42;;;10.50;99.90;;;;;;4422604;32;20113;-68
2021/11/01 06:58:04;;;;;;;4.32;1.12;;;10.50;99.90;;;;;;4418854;32;20066;-68
2021/11/01 07:14:17;;;;;;;4.62;1.50;;;10.90;99.90;;;;;;4413105;32;20090;-67
2021/11/01 07:17:04;;;;;;;2.53;1.12;;;10.90;99.90;;;;;;4427712;32;20092;-68
2021/11/01 07:20:16;;;;;;;2.65;1.62;;;11.00;99.90;;;;;;4420548;32;20070;-68
2021/11/01 07:22:34;;;;;;;1.80;1.37;;;11.00;99.90;;;;;;4420632;32;20396;-67
2021/11/01 07:30:24;;;;;;;2.50;1.10;;;11.10;99.90;;;;;;4419096;32;20113;-67
2021/11/01 07:30:57;;;;;;;1.80;1.45;;;11.10;99.90;;;;;;4423234;32;20491;-67
2021/11/01 08:23:41;;;;;;;1.33;1.12;;;11.50;99.90;;;;;;4421928;32;20656;-68
2021/11/01 08:28:12;;;;;;;1.50;1.02;;;11.60;99.90;;;;;;4420478;32;20559;-68
2021/11/01 08:41:32;;;;;;;2.78;1.58;;;12.00;99.90;;;;;;4432515;32;20114;-68
2021/11/01 08:44:29;;;;;;;6.03;2.20;;;12.00;99.90;;;;;;4433169;32;20576;-67
2021/11/01 09:01:24;;;;;;;3.83;1.50;;;12.20;99.90;;;;;;4424183;32;20088;-69
2021/11/01 09:05:53;;;;;;;3.87;1.40;;;12.20;99.90;;;;;;4410355;32;20088;-68
2021/11/01 09:18:53;;;;;;;1.58;1.08;;;12.30;99.90;;;;;;4407241;32;20502;-68
2021/11/01 09:23:05;;;;;;;2.58;1.45;;;12.40;99.90;;;;;;4421604;32;20475;-68
2021/11/01 09:25:11;;;;;;;0.88;0.85;;;12.40;99.90;;;;;;4420277;32;20077;-67
2021/11/01 09:26:51;;;;;;;1.92;1.10;;;12.40;99.90;;;;;;4425934;32;20153;-67
2021/11/01 09:37:53;;;;;;;2.42;1.45;;;12.50;99.90;;;;;;4419869;32;20129;-67
2021/11/01 09:41:15;;;;;;;1.48;1.05;;;12.50;99.90;;;;;;4420008;32;20681;-66
2021/11/01 09:43:00;;;;;;;2.28;1.95;;;12.60;99.90;;;;;;4421230;32;20094;-68
2021/11/01 09:45:27;;;;;;;17.70;2.22;;;12.60;99.90;;;;;;4430022;32;20177;-68
2021/11/01 09:47:53;;;;;;;1.67;1.17;;;12.60;99.90;;;;;;4424876;32;20551;-70
2021/11/01 09:50:23;;;;;;;2.28;1.02;;;12.70;99.90;;;;;;4421634;32;20602;-69
2021/11/01 09:52:57;;;;;;;5.62;1.50;;;12.80;99.90;;;;;;4422533;32;20080;-68
2021/11/01 09:56:40;;;;;;;2.03;1.20;;;12.80;99.90;;;;;;4419335;32;20081;-69
2021/11/01 09:59:11;;;;;;;2.95;2.20;;;12.80;99.90;;;;;;4421258;32;20105;-69
2021/11/01 10:00:57;;;;;;;2.17;1.37;;;12.90;99.90;;;;;;4417063;32;20092;-69
2021/11/01 10:03:41;;;;;;;1.83;1.30;;;12.90;99.90;;;;;;4420631;32;20420;-68
2021/11/01 10:06:09;;;;;;;0.80;0.80;;;12.90;99.90;;;;;;4421563;32;20556;-68
2021/11/01 10:08:35;;;;;;;5.68;3.33;;;13.00;99.90;;;;;;4424444;32;20085;-66
2021/11/01 10:11:13;;;;;;;1.30;1.00;;;13.00;99.90;;;;;;4419132;32;20158;-68
2021/11/01 10:13:39;;;;;;;6.05;1.83;;;12.90;99.90;;;;;;4425483;32;20090;-68
2021/11/01 10:17:36;;;;;;;1.27;1.10;;;12.90;99.90;;;;;;4428410;32;20109;-69
2021/11/01 10:18:50;;;;;;;1.17;1.08;;;12.80;99.90;;;;;;4421571;32;20065;-68
2021/11/01 10:21:18;;;;;;;0.93;0.85;;;12.80;99.90;;;;;;4423733;32;20114;-69
2021/11/01 10:23:55;;;;;;;1.55;1.23;;;12.80;99.90;;;;;;4423845;32;20158;-69
2021/11/01 10:26:29;;;;;;;3.45;1.62;;;12.70;99.90;;;;;;4420658;32;20097;-68
2021/11/01 10:28:55;;;;;;;5.60;2.12;;;12.70;99.90;;;;;;4419642;32;20152;-68
2021/11/01 10:31:23;;;;;;;1.00;0.90;;;12.70;99.90;;;;;;4421122;32;20420;-69
2021/11/01 10:33:50;;;;;;;10.73;0.95;;;12.70;99.90;;;;;;4419815;32;20199;-69
2021/11/01 10:36:34;;;;;;;3.17;1.30;;;12.70;99.90;;;;;;4419129;32;20563;-69
2021/11/01 10:39:06;;;;;;;1.60;1.17;;;12.80;99.90;;;;;;4423746;32;20077;-69
2021/11/01 10:42:16;;;;;;;2.62;1.20;;;12.70;99.90;;;;;;4423730;32;20101;-68
2021/11/01 10:45:29;;;;;;;4.47;2.25;;;12.80;99.90;;;;;;4416466;32;20135;-69
2021/11/01 10:56:57;;;;;;;5.90;1.55;;;13.00;99.90;;;;;;4419743;32;20093;-68
2021/11/01 10:58:43;;;;;;;1.70;1.42;;;12.90;99.90;;;;;;4419781;32;20494;-69
2021/11/01 11:11:10;;;;;;;0.85;0.85;;;12.90;99.90;;;;;;4424319;32;20066;-69
2021/11/01 11:12:53;;;;;;;3.70;1.45;;;12.90;99.90;;;;;;4423385;32;20109;-68
2021/11/01 11:15:07;;;;;;;1.15;1.02;;;12.90;99.90;;;;;;4417302;32;20341;-68
2021/11/01 11:18:51;;;;;;;4.75;1.42;;;12.90;99.90;;;;;;4415792;32;20424;-68
2021/11/01 11:25:00;;;;;;;1.92;0.88;;;12.90;99.90;;;;;;4422287;32;20085;-68
2021/11/01 11:32:04;;;;;;;0.45;0.45;;;12.90;99.90;;;;;;4428513;32;20092;-69
2021/11/01 11:38:46;;;;;;;1.05;0.90;;;13.10;99.90;;;;;;4432536;32;20120;-69
2021/11/01 11:39:28;;;;;;;4.82;1.52;;;13.10;99.90;;;;;;4435885;32;20109;-69
2021/11/01 11:42:21;;;;;;;2.08;1.23;;;13.10;99.90;;;;;;4426651;32;20105;-69
2021/11/01 11:47:26;;;;;;;1.02;1.00;;;13.10;99.90;;;;;;4427021;32;20105;-69
2021/11/01 11:49:53;;;;;;;2.37;1.40;;;13.20;99.90;;;;;;4429356;32;20716;-69
2021/11/01 11:52:21;;;;;;;1.00;0.80;;;13.20;99.90;;;;;;4427524;32;20122;-69
2021/11/01 11:54:53;;;;;;;1.00;0.70;;;13.20;99.90;;;;;;4430669;32;20489;-68
2021/11/01 11:57:21;;;;;;;2.05;1.37;;;13.20;99.90;;;;;;4430886;32;20077;-69
2021/11/01 11:59:49;;;;;;;1.75;0.95;;;13.10;99.90;;;;;;4431035;32;20093;-69
2021/11/01 12:02:16;;;;;;;1.70;0.98;;;13.10;99.90;;;;;;4429064;32;20093;-69
2021/11/01 12:04:47;;;;;;;1.17;0.80;;;13.10;99.90;;;;;;4427035;32;20606;-69
2021/11/01 12:07:15;;;;;;;3.37;1.58;;;13.10;99.90;;;;;;4418864;32;20556;-69
2021/11/01 12:10:00;;;;;;;1.67;1.00;;;13.10;99.90;;;;;;4426585;32;20432;-69
2021/11/01 12:12:48;;;;;;;0.98;0.82;;;13.00;99.90;;;;;;4424161;32;20118;-69
2021/11/01 12:17:56;;;;;;;2.42;1.15;;;12.90;99.90;;;;;;4427392;32;20441;-69
2021/11/01 12:20:23;;;;;;;0.60;0.60;;;13.00;99.90;;;;;;4424312;32;20093;-68
2021/11/01 12:22:51;;;;;;;0.65;0.65;;;13.00;99.90;;;;;;4425933;32;20073;-68
2021/11/01 12:25:20;;;;;;;0.65;0.65;;;13.00;99.90;;;;;;4431369;32;20709;-69
2021/11/01 12:27:56;;;;;;;0.50;0.50;;;13.00;99.90;;;;;;4428185;32;20161;-69
2021/11/01 12:30:24;;;;;;;3.15;0.93;;;13.00;99.90;;;;;;4431744;32;20383;-69
2021/11/01 12:32:50;;;;;;;1.23;0.93;;;13.00;99.90;;;;;;4429180;32;20085;-69
2021/11/01 12:35:26;;;;;;;1.80;1.10;;;12.90;99.90;;;;;;4431357;32;20247;-69
2021/11/01 12:37:59;;;;;;;0.70;0.70;;;12.90;99.90;;;;;;4425506;32;20403;-69
2021/11/01 12:43:25;;;;;;;6.37;1.23;;;12.90;99.90;;;;;;4427707;32;20053;-68
2021/11/01 12:57:31;;;;;;;0.60;0.60;;;12.90;99.90;;;;;;4430825;32;20092;-69
2021/11/01 12:59:59;;;;;;;1.08;0.85;;;12.90;99.90;;;;;;4426965;32;20534;-68
2021/11/01 13:02:29;;;;;;;1.42;0.85;;;12.80;99.90;;;;;;4424895;32;20099;-68
2021/11/01 13:04:56;;;;;;;1.40;0.97;;;12.80;99.90;;;;;;4431459;32;20455;-68
2021/11/01 13:07:38;;;;;;;3.30;1.15;;;12.80;99.90;;;;;;4432385;32;20252;-68
2021/11/01 13:10:20;;;;;;;4.22;1.37;;;12.80;99.90;;;;;;4433407;32;20139;-68
2021/11/01 13:12:58;;;;;;;2.20;1.30;;;12.80;99.90;;;;;;4434084;32;20506;-68
2021/11/01 13:18:21;;;;;;;2.58;1.00;;;12.90;99.90;;;;;;4428919;32;20140;-69
2021/11/01 13:20:53;;;;;;;0.60;0.60;;;12.90;99.90;;;;;;4431598;32;20076;-68
2021/11/01 13:23:21;;;;;;;0.40;0.40;;;12.80;99.90;;;;;;4432425;32;20375;-68
2021/11/01 13:26:01;;;;;;;0.40;0.40;;;12.80;99.90;;;;;;4435467;32;20884;-68
2021/11/01 13:34:46;;;;;;;0.52;0.52;;;12.70;99.90;;;;;;4424995;32;20077;-68
2021/11/01 13:36:39;;;;;;;0.90;0.75;;;12.70;99.90;;;;;;4420667;32;20096;-69
2021/11/01 13:39:06;;;;;;;3.20;0.73;;;12.60;99.90;;;;;;4428003;32;20131;-69
2021/11/01 13:41:32;;;;;;;0.77;0.77;;;12.60;99.90;;;;;;4430152;32;20423;-68
2021/11/01 13:44:08;;;;;;;0.40;0.40;;;12.70;99.90;;;;;;4429969;32;20100;-68
2021/11/01 13:46:40;;;;;;;0.52;0.47;;;12.50;99.90;;;;;;4434113;32;20530;-68
2021/11/01 13:49:08;;;;;;;0.90;0.60;;;12.50;99.90;;;;;;4435548;32;20073;-68
2021/11/01 13:51:34;;;;;;;0.35;0.35;;;12.50;99.90;;;;;;4433857;32;20123;-69
2021/11/01 13:56:40;;;;;;;0.62;0.62;;;12.50;99.90;;;;;;4430449;32;20076;-68
2021/11/01 13:59:23;;;;;;;0.73;0.62;;;12.50;99.90;;;;;;4430957;32;20135;-68
2021/11/01 14:03:10;;;;;;;0.30;0.30;;;12.40;99.90;;;;;;4431347;32;20070;-68
2021/11/01 14:11:21;;;;;;;0.20;0.20;;;12.30;99.90;;;;;;4429366;32;20089;-68
2021/11/01 14:13:02;;;;;;;1.20;0.93;;;12.40;99.90;;;;;;4433674;32;20658;-68
2021/11/01 14:15:55;;;;;;;0.88;0.75;;;12.20;99.90;;;;;;4433546;32;20729;-68
2021/11/01 14:28:13;;;;;;;2.50;0.50;;;12.10;99.90;;;;;;4428882;32;20097;-68
2021/11/01 14:34:03;;;;;;;0.43;0.43;;;12.00;99.90;;;;;;4429428;32;20495;-68
2021/11/01 14:55:11;;;;;;;0.20;0.20;;;12.00;99.90;;;;;;4429930;32;20069;-67
2021/11/01 14:55:46;;;;;;;1.52;0.32;;;11.90;99.90;;;;;;4435511;32;20566;-67
2021/11/01 14:56:29;;;;;;;0.30;0.30;;;11.90;99.90;;;;;;4434464;32;20531;-69
2021/11/01 15:01:35;;;;;;;0.50;0.50;;;11.90;99.90;;;;;;4434688;32;20076;-69
2021/11/01 15:05:20;;;;;;;7.57;1.02;;;11.90;99.90;;;;;;4444049;32;21268;-69
2021/11/01 15:07:16;;;;;;;0.55;0.55;;;11.90;99.90;;;;;;4431287;32;20447;-69
2021/11/01 15:09:53;;;;;;;1.48;0.70;;;11.90;99.90;;;;;;4433077;32;20304;-69
2021/11/01 15:17:58;;;;;;;0.70;0.70;;;11.80;99.90;;;;;;4435425;32;20268;-68
2021/11/01 15:20:35;;;;;;;0.93;0.85;;;11.80;99.90;;;;;;4436189;32;20441;-68
2021/11/01 15:23:43;;;;;;;1.30;1.12;;;11.80;99.90;;;;;;4438407;32;20149;-69
2021/11/01 15:28:57;;;;;;;0.40;0.40;;;11.80;99.90;;;;;;4436303;32;20062;-67
2021/11/01 15:34:28;;;;;;;0.93;0.68;;;11.80;99.90;;;;;;4416858;32;20052;-67
2021/11/01 15:37:14;;;;;;;0.40;0.40;;;11.70;99.90;;;;;;4426503;32;20065;-68
2021/11/01 16:15:21;;;;;;;0.40;0.40;;;11.70;99.90;;;;;;4436403;32;20097;-68
2021/11/01 16:16:00;;;;;;;0.70;0.70;;;11.70;99.90;;;;;;4438909;32;20104;-68
2021/11/01 16:18:13;;;;;;;0.93;0.77;;;11.70;99.90;;;;;;4440161;32;20131;-69
2021/11/01 16:20:40;;;;;;;0.40;0.40;;;11.70;99.90;;;;;;4442559;32;20570;-68
2021/11/01 16:23:33;;;;;;;0.30;0.30;;;11.70;99.90;;;;;;4442210;32;20978;-67
2021/11/01 16:25:56;;;;;;;0.40;0.40;;;11.60;99.90;;;;;;4440383;32;20073;-69
2021/11/01 16:28:24;;;;;;;0.47;0.47;;;11.60;99.90;;;;;;4445889;32;20479;-69
2021/11/01 16:31:10;;;;;;;0.30;0.30;;;11.60;99.90;;;;;;4441550;32;20097;-69
2021/11/01 16:33:43;;;;;;;0.40;0.40;;;11.70;99.90;;;;;;4437307;32;20077;-67
2021/11/01 16:36:19;;;;;;;0.43;0.43;;;11.70;99.90;;;;;;4443607;32;20081;-67
2021/11/01 16:38:51;;;;;;;0.88;0.65;;;11.70;99.90;;;;;;4443692;32;20101;-69
2021/11/01 16:41:19;;;;;;;2.50;0.55;;;11.60;99.90;;;;;;4442652;32;20420;-69
2021/11/01 16:43:46;;;;;;;0.35;0.35;;;11.70;99.90;;;;;;4442837;32;20073;-69
2021/11/01 16:46:12;;;;;;;0.90;0.77;;;11.60;99.90;;;;;;4445625;32;20072;-67
2021/11/01 16:48:38;;;;;;;1.10;1.00;;;11.50;99.90;;;;;;4443300;32;20073;-69
2021/11/01 16:51:04;;;;;;;1.60;0.50;;;11.40;99.90;;;;;;4441008;32;20097;-69
2021/11/01 16:53:32;;;;;;;1.25;0.95;;;11.40;99.90;;;;;;4443509;32;20192;-67
2021/11/01 16:56:14;;;;;;;2.75;0.60;;;11.40;99.90;;;;;;4440431;32;20100;-67
2021/11/01 16:58:44;;;;;;;0.40;0.40;;;11.30;99.90;;;;;;4439244;32;20081;-67
2021/11/01 17:01:15;;;;;;;0.47;0.47;;;11.30;99.90;;;;;;4441445;32;20092;-69
2021/11/01 17:06:30;;;;;;;0.40;0.40;;;11.30;99.90;;;;;;4439983;32;20108;-67
2021/11/01 17:09:16;;;;;;;1.75;0.60;;;11.30;99.90;;;;;;4441720;32;20057;-67
2021/11/01 17:21:40;;;;;;;0.40;0.40;;;11.10;99.90;;;;;;4455235;32;20576;-67
2021/11/01 17:22:54;;;;;;;0.73;0.62;;;11.20;99.90;;;;;;4435862;32;20058;-67
2021/11/01 17:25:25;;;;;;;0.30;0.30;;;11.20;99.90;;;;;;4430957;32;20085;-67
2021/11/01 17:28:40;;;;;;;0.57;0.57;;;11.20;99.90;;;;;;4441849;32;20069;-67
2021/11/01 17:30:53;;;;;;;0.50;0.50;;;11.20;99.90;;;;;;4441584;32;20088;-68
2021/11/01 17:36:50;;;;;;;0.40;0.40;;;11.20;99.90;;;;;;4442392;32;20085;-68
2021/11/01 18:39:09;;;;;;;0.75;0.40;;;10.90;99.90;;;;;;4434169;32;20129;-67
2021/11/01 18:40:40;;;;;;;0.43;0.43;;;10.80;99.90;;;;;;4429957;32;20127;-68
2021/11/01 18:43:30;;;;;;;0.40;0.40;;;10.80;99.90;;;;;;4444291;32;20116;-68
2021/11/01 18:46:15;;;;;;;0.50;0.50;;;10.90;99.90;;;;;;4442337;32;20136;-68
2021/11/01 18:51:21;;;;;;;0.60;0.60;;;10.90;99.90;;;;;;4442747;32;20068;-68
2021/11/01 18:54:17;;;;;;;22.92;3.05;;;10.90;99.90;;;;;;4441453;32;20089;-68
2021/11/01 18:56:44;;;;;;;0.85;0.50;;;10.90;99.90;;;;;;4442947;32;20061;-68
2021/11/01 18:59:10;;;;;;;0.40;0.40;;;10.90;99.90;;;;;;4443100;32;20049;-68
2021/11/01 19:01:38;;;;;;;0.60;0.60;;;10.90;99.90;;;;;;4442528;32;20142;-68
2021/11/01 19:04:12;;;;;;;0.40;0.40;;;10.90;99.90;;;;;;4443309;32;20061;-68
2021/11/01 19:06:46;;;;;;;0.70;0.70;;;10.90;99.90;;;;;;4445375;32;20057;-68
2021/11/01 19:10:39;;;;;;;0.40;0.40;;;10.80;99.90;;;;;;4445539;32;20452;-68
2021/11/01 19:13:31;;;;;;;0.70;0.70;;;10.80;99.90;;;;;;4444881;32;20122;-68
2021/11/01 19:18:27;;;;;;;1.90;1.15;;;10.90;99.90;;;;;;4444487;32;20132;-68
2021/11/01 20:04:50;;;;;;;0.47;0.47;;;10.60;99.90;;;;;;4443906;32;20495;-68
2021/11/01 20:08:27;;;;;;;0.98;0.57;;;10.60;99.90;;;;;;4444245;32;20068;-68
2021/11/01 20:10:28;;;;;;;0.40;0.40;;;10.60;99.90;;;;;;4443042;32;20086;-68
2021/11/01 20:13:07;;;;;;;0.55;0.52;;;10.60;99.90;;;;;;4437360;32;20584;-68
2021/11/01 20:15:52;;;;;;;1.30;0.82;;;10.60;99.90;;;;;;4452009;32;20080;-68
2021/11/01 21:24:50;;;;;;;6.03;0.65;;;10.40;99.90;;;;;;4442423;32;20065;-68